createdAt,value
2023-04-15T00:01:12.100Z,7.60
2023-04-15T00:03:39.177Z,7.56
2023-04-15T00:06:06.350Z,7.59
2023-04-15T00:08:33.284Z,7.52
2023-04-15T00:11:05.814Z,7.68
2023-04-15T00:13:35.447Z,7.67
2023-04-15T00:16:02.333Z,7.54
2023-04-15T00:18:32.246Z,7.49
2023-04-15T00:20:59.694Z,7.59
2023-04-15T00:23:26.801Z,7.53
2023-04-15T00:25:53.449Z,7.54
2023-04-15T00:28:23.054Z,7.54
2023-04-15T00:30:51.350Z,7.65
2023-04-15T00:33:19.462Z,7.53
2023-04-15T00:35:46.108Z,7.52
2023-04-15T00:38:13.274Z,7.47
2023-04-15T00:40:40.036Z,7.60
2023-04-15T00:43:07.170Z,7.64
2023-04-15T00:45:34.326Z,7.53
2023-04-15T00:48:01.134Z,7.71
2023-04-15T00:50:27.942Z,7.58
2023-04-15T00:52:54.547Z,7.50
2023-04-15T00:55:21.318Z,7.51
2023-04-15T00:57:48.676Z,7.58
2023-04-15T01:00:18.936Z,7.59
2023-04-15T01:02:45.898Z,7.47
2023-04-15T01:05:13.198Z,7.67
2023-04-15T01:07:39.836Z,7.51
2023-04-15T01:10:07.151Z,7.51
2023-04-15T01:12:34.403Z,7.51
2023-04-15T01:15:02.357Z,7.40
2023-04-15T01:17:29.528Z,7.39
2023-04-15T01:19:58.035Z,7.49
2023-04-15T01:22:26.965Z,7.45
2023-04-15T01:25:12.747Z,7.56
2023-04-15T01:27:42.323Z,7.52
2023-04-15T01:30:09.628Z,7.51
2023-04-15T01:32:37.128Z,7.59
2023-04-15T01:35:04.119Z,7.53
2023-04-15T01:37:31.120Z,7.54
2023-04-15T01:39:59.863Z,7.57
2023-04-15T01:42:27.879Z,7.51
2023-04-15T01:44:54.872Z,7.56
2023-04-15T01:47:21.850Z,7.56
2023-04-15T01:49:48.664Z,7.50
2023-04-15T01:52:17.874Z,7.49
2023-04-15T01:54:44.705Z,7.51
2023-04-15T01:57:11.603Z,7.48
2023-04-15T01:59:38.771Z,7.36
2023-04-15T02:02:05.579Z,7.38
2023-04-15T02:04:34.009Z,7.45
2023-04-15T02:07:00.919Z,7.44
2023-04-15T02:09:32.152Z,7.46
2023-04-15T02:11:58.950Z,7.30
2023-04-15T02:14:26.189Z,7.46
2023-04-15T02:16:53.236Z,7.52
2023-04-15T02:19:20.298Z,7.45
2023-04-15T02:21:46.911Z,7.62
2023-04-15T02:24:22.278Z,7.54
2023-04-15T02:26:49.314Z,7.44
2023-04-15T02:29:16.337Z,7.46
2023-04-15T02:31:43.851Z,7.46
2023-04-15T02:34:10.752Z,7.43
2023-04-15T02:36:38.300Z,7.40
2023-04-15T02:39:05.176Z,7.39
2023-04-15T02:41:32.007Z,7.32
2023-04-15T02:43:58.714Z,7.41
2023-04-15T02:46:25.760Z,7.37
2023-04-15T02:48:53.803Z,7.37
2023-04-15T02:51:22.937Z,7.40
2023-04-15T02:53:51.042Z,7.39
2023-04-15T02:56:19.565Z,7.42
2023-04-15T02:58:46.670Z,7.36
2023-04-15T03:01:19.231Z,7.45
2023-04-15T03:03:46.637Z,7.45
2023-04-15T03:06:13.742Z,7.47
2023-04-15T03:08:40.856Z,7.54
2023-04-15T03:11:08.805Z,7.50
2023-04-15T03:13:35.497Z,7.49
2023-04-15T03:16:02.382Z,7.53
2023-04-15T03:18:29.406Z,7.48
2023-04-15T03:20:56.123Z,7.59
2023-04-15T03:23:26.398Z,7.54
2023-04-15T03:25:55.919Z,7.48
2023-04-15T03:28:22.722Z,7.59
2023-04-15T03:30:49.842Z,7.56
2023-04-15T03:33:16.474Z,7.53
2023-04-15T03:35:43.161Z,7.60
2023-04-15T03:38:09.980Z,7.56
2023-04-15T03:40:36.871Z,7.61
2023-04-15T03:43:03.485Z,7.54
2023-04-15T03:45:30.334Z,7.52
2023-04-15T03:48:03.603Z,7.53
2023-04-15T03:50:38.081Z,7.51
2023-04-15T03:53:04.743Z,7.50
2023-04-15T03:55:31.738Z,7.50
2023-04-15T03:57:58.417Z,7.54
2023-04-15T04:00:25.796Z,7.60
2023-04-15T04:02:54.632Z,7.66
2023-04-15T04:05:21.305Z,7.72
2023-04-15T04:07:51.304Z,7.72
2023-04-15T04:10:21.613Z,7.67
2023-04-15T04:12:48.251Z,7.68
2023-04-15T04:15:15.043Z,7.58
2023-04-15T04:17:45.067Z,7.66
2023-04-15T04:20:12.595Z,7.69
2023-04-15T04:22:42.555Z,7.64
2023-04-15T04:25:13.135Z,7.74
2023-04-15T04:27:39.759Z,7.73
2023-04-15T04:30:07.381Z,7.83
2023-04-15T04:32:34.291Z,7.89
2023-04-15T04:35:01.039Z,7.76
2023-04-15T04:37:27.708Z,7.82
2023-04-15T04:39:54.450Z,7.82
2023-04-15T04:42:21.200Z,7.86
2023-04-15T04:44:47.962Z,7.97
2023-04-15T04:47:17.517Z,7.90
2023-04-15T04:49:44.339Z,7.86
2023-04-15T04:52:11.786Z,7.82
2023-04-15T04:54:38.550Z,7.86
2023-04-15T04:57:05.196Z,7.89
2023-04-15T04:59:31.808Z,7.95
2023-04-15T05:01:58.587Z,7.96
2023-04-15T05:04:25.422Z,8.01
2023-04-15T05:06:52.209Z,8.02
2023-04-15T05:09:19.319Z,7.93
2023-04-15T05:11:46.175Z,8.01
2023-04-15T05:14:12.854Z,8.03
2023-04-15T05:16:39.519Z,8.04
2023-04-15T05:19:06.294Z,8.01
2023-04-15T05:21:33.009Z,8.07
2023-04-15T05:23:59.710Z,8.18
2023-04-15T05:26:27.591Z,8.07
2023-04-15T05:28:54.378Z,8.01
2023-04-15T05:31:21.332Z,8.06
2023-04-15T05:33:48.202Z,8.08
2023-04-15T05:36:16.373Z,8.07
2023-04-15T05:38:42.978Z,8.13
2023-04-15T05:41:09.634Z,8.18
2023-04-15T05:43:36.342Z,8.27
2023-04-15T05:46:02.995Z,8.28
2023-04-15T05:48:29.741Z,8.27
2023-04-15T05:50:56.612Z,8.45
2023-04-15T05:53:23.341Z,8.53
2023-04-15T05:55:50.034Z,8.60
2023-04-15T05:58:16.664Z,8.71
2023-04-15T06:00:43.957Z,8.69
2023-04-15T06:03:11.901Z,8.93
2023-04-15T06:05:41.759Z,9.03
2023-04-15T06:08:09.880Z,9.06
2023-04-15T06:10:37.027Z,9.08
2023-04-15T06:13:04.941Z,9.10
2023-04-15T06:15:32.114Z,9.14
2023-04-15T06:17:58.891Z,9.05
2023-04-15T06:20:28.743Z,9.08
2023-04-15T06:22:55.756Z,9.03
2023-04-15T06:25:24.075Z,9.04
2023-04-15T06:27:53.569Z,9.15
2023-04-15T06:30:22.895Z,9.28
2023-04-15T06:32:50.758Z,9.19
2023-04-15T06:35:20.722Z,9.28
2023-04-15T06:37:47.384Z,9.38
2023-04-15T06:40:14.313Z,9.37
2023-04-15T06:42:41.994Z,9.34
2023-04-15T06:45:09.596Z,9.46
2023-04-15T06:47:36.996Z,9.56
2023-04-15T06:50:04.197Z,9.85
2023-04-15T06:52:31.628Z,9.93
2023-04-15T06:54:59.625Z,10.06
2023-04-15T06:57:26.457Z,10.23
2023-04-15T06:59:54.673Z,10.21
2023-04-15T07:02:22.319Z,10.31
2023-04-15T07:04:49.113Z,10.36
2023-04-15T07:07:18.954Z,10.41
2023-04-15T07:09:45.665Z,10.30
2023-04-15T07:12:12.441Z,10.25
2023-04-15T07:14:39.163Z,10.41
2023-04-15T07:17:05.857Z,10.48
2023-04-15T07:19:32.570Z,10.48
2023-04-15T07:21:59.301Z,10.44
2023-04-15T07:24:27.207Z,10.23
2023-04-15T07:26:59.472Z,10.17
2023-04-15T07:29:27.565Z,10.01
2023-04-15T07:31:54.243Z,10.25
2023-04-15T07:34:21.266Z,10.20
2023-04-15T07:36:54.138Z,10.07
2023-04-15T07:39:21.028Z,10.16
2023-04-15T07:41:49.115Z,10.06
2023-04-15T07:44:15.803Z,9.98
2023-04-15T07:46:42.500Z,9.83
2023-04-15T07:49:09.387Z,9.85
2023-04-15T07:51:36.013Z,9.83
2023-04-15T07:54:03.302Z,9.72
2023-04-15T07:56:30.195Z,9.92
2023-04-15T07:58:57.028Z,9.74
2023-04-15T08:01:23.961Z,9.71
2023-04-15T08:03:51.139Z,9.62
2023-04-15T08:06:18.047Z,9.69
2023-04-15T08:08:50.358Z,9.59
2023-04-15T08:11:17.085Z,9.57
2023-04-15T08:13:44.145Z,9.74
2023-04-15T08:16:21.056Z,9.71
2023-04-15T08:18:49.321Z,9.63
2023-04-15T08:21:17.912Z,9.48
2023-04-15T08:23:46.265Z,9.49
2023-04-15T08:26:13.222Z,9.59
2023-04-15T08:28:43.658Z,9.50
2023-04-15T08:31:10.667Z,9.54
2023-04-15T08:33:37.373Z,9.38
2023-04-15T08:36:04.603Z,9.48
2023-04-15T08:38:31.354Z,9.49
2023-04-15T08:41:00.477Z,9.41
2023-04-15T08:43:35.063Z,9.39
2023-04-15T08:46:03.737Z,9.51
2023-04-15T08:48:33.327Z,9.45
2023-04-15T08:51:01.118Z,9.39
2023-04-15T08:53:35.436Z,9.42
2023-04-15T08:56:06.387Z,9.63
2023-04-15T08:58:36.148Z,9.48
2023-04-15T09:01:03.525Z,9.50
2023-04-15T09:03:30.921Z,9.39
2023-04-15T09:06:01.360Z,9.59
2023-04-15T09:08:28.170Z,9.50
2023-04-15T09:10:55.121Z,9.57
2023-04-15T09:13:25.134Z,9.47
2023-04-15T09:15:53.906Z,9.48
2023-04-15T09:18:31.486Z,9.59
2023-04-15T09:21:09.304Z,9.60
2023-04-15T09:23:36.536Z,9.63
2023-04-15T09:26:06.509Z,9.57
2023-04-15T09:28:33.596Z,9.47
2023-04-15T09:31:02.021Z,9.46
2023-04-15T09:33:30.444Z,9.58
2023-04-15T09:36:05.126Z,9.54
2023-04-15T09:38:32.691Z,9.66
2023-04-15T09:41:02.801Z,9.51
2023-04-15T09:43:39.697Z,9.54
2023-04-15T09:46:06.540Z,9.54
2023-04-15T09:48:33.794Z,9.68
2023-04-15T09:51:07.066Z,9.51
2023-04-15T09:53:41.703Z,9.69
2023-04-15T09:56:11.221Z,9.57
2023-04-15T09:58:39.170Z,9.53
2023-04-15T10:01:08.003Z,9.63
2023-04-15T10:03:37.823Z,9.56
2023-04-15T10:06:09.318Z,9.49
2023-04-15T10:08:36.573Z,9.45
2023-04-15T10:11:04.093Z,9.48
2023-04-15T10:13:37.666Z,9.78
2023-04-15T10:16:26.973Z,9.71
2023-04-15T10:18:58.423Z,9.63
2023-04-15T10:21:25.403Z,9.54
2023-04-15T10:24:00.819Z,9.46
2023-04-15T10:26:36.524Z,9.54
2023-04-15T10:29:03.881Z,9.48
2023-04-15T10:31:31.218Z,9.52
2023-04-15T10:33:59.776Z,9.59
2023-04-15T10:36:27.676Z,9.80
2023-04-15T10:38:54.613Z,9.63
2023-04-15T10:41:27.073Z,9.64
2023-04-15T10:44:01.500Z,9.59
2023-04-15T10:46:38.704Z,9.66
2023-04-15T10:49:19.901Z,9.69
2023-04-15T10:51:51.621Z,9.77
2023-04-15T10:54:24.181Z,9.84
2023-04-15T10:57:23.795Z,9.85
2023-04-15T11:00:11.335Z,9.95
2023-04-15T11:02:54.327Z,9.88
2023-04-15T11:05:24.074Z,9.83
2023-04-15T11:07:55.873Z,9.90
2023-04-15T11:10:33.087Z,9.85
2023-04-15T11:13:03.273Z,9.86
2023-04-15T11:15:41.818Z,9.77
2023-04-15T11:18:28.705Z,9.86
2023-04-15T11:21:00.119Z,9.72
2023-04-15T11:23:46.907Z,9.81
2023-04-15T11:26:14.282Z,9.89
2023-04-15T11:28:43.087Z,9.86
2023-04-15T11:31:12.345Z,9.81
2023-04-15T11:33:59.940Z,9.65
2023-04-15T11:36:28.935Z,9.88
2023-04-15T11:38:57.660Z,9.84
2023-04-15T11:41:24.819Z,9.80
2023-04-15T11:43:52.716Z,9.65
2023-04-15T11:46:34.745Z,9.76
2023-04-15T11:49:01.789Z,9.74
2023-04-15T11:51:33.268Z,9.65
2023-04-15T11:54:00.863Z,9.68
2023-04-15T11:56:27.746Z,9.73
2023-04-15T11:59:03.146Z,9.66
2023-04-15T12:01:39.516Z,9.78
2023-04-15T12:04:22.564Z,9.92
2023-04-15T12:06:54.213Z,10.00
2023-04-15T12:09:21.764Z,10.07
2023-04-15T12:11:50.358Z,10.13
2023-04-15T12:14:33.418Z,10.11
2023-04-15T12:17:05.068Z,10.14
2023-04-15T12:19:40.456Z,10.12
2023-04-15T12:22:14.020Z,10.16
2023-04-15T12:24:44.349Z,10.22
2023-04-15T12:27:12.443Z,10.15
2023-04-15T12:29:41.385Z,10.20
2023-04-15T12:32:12.170Z,10.13
2023-04-15T12:34:41.522Z,10.20
2023-04-15T12:37:09.913Z,10.48
2023-04-15T12:39:42.324Z,10.50
2023-04-15T12:42:09.524Z,10.60
2023-04-15T12:44:37.469Z,10.66
2023-04-15T12:47:05.042Z,10.51
2023-04-15T12:49:39.732Z,10.57
2023-04-15T12:52:07.510Z,10.82
2023-04-15T12:54:34.827Z,10.76
2023-04-15T12:57:05.557Z,10.82
2023-04-15T12:59:33.771Z,11.18
2023-04-15T13:02:01.218Z,11.21
2023-04-15T13:04:30.942Z,10.98
2023-04-15T13:06:58.155Z,11.10
2023-04-15T13:09:25.131Z,10.89
2023-04-15T13:11:52.779Z,10.88
2023-04-15T13:14:19.849Z,10.89
2023-04-15T13:16:46.531Z,10.91
2023-04-15T13:19:13.203Z,10.82
2023-04-15T13:21:39.925Z,10.64
2023-04-15T13:24:07.460Z,10.81
2023-04-15T13:26:34.494Z,10.86
2023-04-15T13:29:01.451Z,11.12
2023-04-15T13:31:28.282Z,10.92
2023-04-15T13:33:54.984Z,10.98
2023-04-15T13:36:21.805Z,10.94
2023-04-15T13:38:50.994Z,10.80
2023-04-15T13:41:18.239Z,10.74
2023-04-15T13:43:44.840Z,10.66
2023-04-15T13:46:11.573Z,10.70
2023-04-15T13:48:38.227Z,10.61
2023-04-15T13:51:04.859Z,10.64
2023-04-15T13:53:39.197Z,10.67
2023-04-15T13:56:10.370Z,10.57
2023-04-15T13:58:38.110Z,10.70
2023-04-15T14:01:06.977Z,10.53
2023-04-15T14:03:36.249Z,10.48
2023-04-15T14:06:03.551Z,10.44
2023-04-15T14:08:30.250Z,10.47
2023-04-15T14:10:57.800Z,10.71
2023-04-15T14:13:24.592Z,10.61
2023-04-15T14:15:51.285Z,10.65
2023-04-15T14:18:17.946Z,10.52
2023-04-15T14:20:44.508Z,10.33
2023-04-15T14:23:11.100Z,10.32
2023-04-15T14:25:39.395Z,10.29
2023-04-15T14:28:06.255Z,10.26
2023-04-15T14:30:33.056Z,10.18
2023-04-15T14:32:59.874Z,10.24
2023-04-15T14:35:26.814Z,10.14
2023-04-15T14:37:54.326Z,10.20
2023-04-15T14:40:21.215Z,10.22
2023-04-15T14:42:48.112Z,10.12
2023-04-15T14:45:14.795Z,10.06
2023-04-15T14:47:41.567Z,10.12
2023-04-15T14:50:08.680Z,10.06
2023-04-15T14:52:38.818Z,10.08
2023-04-15T14:55:12.579Z,10.08
2023-04-15T14:57:40.951Z,10.10
2023-04-15T15:00:10.690Z,10.08
2023-04-15T15:02:40.433Z,10.02
2023-04-15T15:05:08.309Z,10.10
2023-04-15T15:07:37.197Z,10.01
2023-04-15T15:10:04.740Z,10.06
2023-04-15T15:12:31.379Z,10.11
2023-04-15T15:14:57.985Z,10.05
2023-04-15T15:17:24.728Z,10.16
2023-04-15T15:19:51.564Z,10.10
2023-04-15T15:22:20.194Z,10.10
2023-04-15T15:24:47.904Z,10.08
2023-04-15T15:27:14.763Z,10.06
2023-04-15T15:29:41.482Z,10.07
2023-04-15T15:32:08.191Z,10.08
2023-04-15T15:34:34.813Z,9.95
2023-04-15T15:37:01.441Z,9.98
2023-04-15T15:39:28.124Z,9.97
2023-04-15T15:41:55.049Z,9.95
2023-04-15T15:44:21.664Z,9.98
2023-04-15T15:46:48.430Z,9.93
2023-04-15T15:49:15.132Z,9.91
2023-04-15T15:51:41.752Z,9.91
2023-04-15T15:54:08.360Z,9.87
2023-04-15T15:56:35.156Z,9.93
2023-04-15T15:59:01.944Z,9.85
2023-04-15T16:01:28.732Z,9.94
2023-04-15T16:03:55.460Z,9.94
2023-04-15T16:06:22.224Z,9.94
2023-04-15T16:08:48.832Z,9.90
2023-04-15T16:11:15.667Z,9.88
2023-04-15T16:13:42.270Z,9.93
2023-04-15T16:16:09.012Z,9.84
2023-04-15T16:18:35.623Z,9.84
2023-04-15T16:21:02.322Z,9.73
2023-04-15T16:23:29.112Z,9.71
2023-04-15T16:25:55.900Z,9.72
2023-04-15T16:28:26.950Z,9.73
2023-04-15T16:30:54.698Z,9.68
2023-04-15T16:33:21.398Z,9.68
2023-04-15T16:35:48.067Z,9.67
2023-04-15T16:38:14.757Z,9.69
2023-04-15T16:40:41.339Z,9.68
2023-04-15T16:43:08.274Z,9.62
2023-04-15T16:45:35.040Z,9.64
2023-04-15T16:48:01.728Z,9.65
2023-04-15T16:50:28.530Z,9.60
2023-04-15T16:52:55.257Z,9.64
2023-04-15T16:55:21.983Z,9.67
2023-04-15T16:58:02.694Z,9.73
2023-04-15T17:00:31.693Z,9.72
2023-04-15T17:02:59.134Z,9.68
2023-04-15T17:05:27.729Z,9.69
2023-04-15T17:07:54.662Z,9.67
2023-04-15T17:10:21.320Z,9.69
2023-04-15T17:12:48.191Z,9.63
2023-04-15T17:15:14.896Z,9.72
2023-04-15T17:17:41.498Z,9.65
2023-04-15T17:20:08.371Z,9.64
2023-04-15T17:22:35.048Z,9.80
2023-04-15T17:25:01.903Z,9.77
2023-04-15T17:27:29.061Z,9.76
2023-04-15T17:29:56.251Z,9.72
2023-04-15T17:32:23.590Z,9.75
2023-04-15T17:34:51.421Z,9.65
2023-04-15T17:37:18.705Z,9.66
2023-04-15T17:39:45.806Z,9.66
2023-04-15T17:42:13.201Z,9.67
2023-04-15T17:44:39.952Z,9.66
2023-04-15T17:47:07.464Z,9.61
2023-04-15T17:49:34.359Z,9.66
2023-04-15T17:52:01.406Z,9.62
2023-04-15T17:54:28.127Z,9.62
2023-04-15T17:56:54.919Z,9.61
2023-04-15T17:59:21.676Z,9.56
2023-04-15T18:01:48.448Z,9.52
2023-04-15T18:04:15.902Z,9.62
2023-04-15T18:06:42.802Z,9.52
2023-04-15T18:09:09.378Z,9.50
2023-04-15T18:11:36.270Z,9.51
2023-04-15T18:14:04.472Z,9.60
2023-04-15T18:16:31.511Z,9.54
2023-04-15T18:18:58.424Z,9.52
2023-04-15T18:21:24.993Z,9.47
2023-04-15T18:23:51.574Z,9.50
2023-04-15T18:26:18.240Z,9.49
2023-04-15T18:28:45.000Z,9.45
2023-04-15T18:31:11.589Z,9.40
2023-04-15T18:33:39.183Z,9.36
2023-04-15T18:36:06.014Z,9.44
2023-04-15T18:38:32.667Z,9.44
2023-04-15T18:40:59.361Z,9.42
2023-04-15T18:43:26.052Z,9.45
2023-04-15T18:45:54.614Z,9.48
2023-04-15T18:48:21.307Z,9.52
2023-04-15T18:50:48.452Z,9.49
2023-04-15T18:53:19.130Z,9.46
2023-04-15T18:55:56.805Z,9.47
2023-04-15T18:59:23.011Z,9.48
2023-04-15T19:01:22.760Z,9.45
2023-04-15T19:03:53.528Z,9.44
2023-04-15T19:06:20.773Z,9.43
2023-04-15T19:08:47.440Z,9.39
2023-04-15T19:11:31.657Z,9.41
2023-04-15T19:13:58.233Z,9.47
2023-04-15T19:16:27.773Z,9.63
2023-04-15T19:18:56.390Z,9.57
2023-04-15T19:21:34.664Z,9.55
2023-04-15T19:24:01.548Z,9.54
2023-04-15T19:26:28.668Z,9.51
2023-04-15T19:29:09.248Z,9.58
2023-04-15T19:31:40.433Z,9.62
2023-04-15T19:34:10.356Z,9.61
2023-04-15T19:36:37.084Z,9.49
2023-04-15T19:39:04.262Z,9.43
2023-04-15T19:41:31.072Z,9.53
2023-04-15T19:43:57.898Z,9.44
2023-04-15T19:46:27.947Z,9.46
2023-04-15T19:48:55.559Z,9.48
2023-04-15T19:51:27.977Z,9.48
2023-04-15T19:53:56.995Z,9.40
2023-04-15T19:56:24.846Z,9.41
2023-04-15T19:58:54.031Z,9.44
2023-04-15T20:01:28.178Z,9.47
2023-04-15T20:03:59.824Z,9.56
2023-04-15T20:06:27.524Z,9.47
2023-04-15T20:08:59.050Z,9.38
2023-04-15T20:12:05.676Z,9.34
2023-04-15T20:14:17.845Z,9.41
2023-04-15T20:16:44.779Z,9.52
2023-04-15T20:19:13.334Z,9.42
2023-04-15T20:21:40.141Z,9.50
2023-04-15T20:24:07.254Z,9.49
2023-04-15T20:26:34.039Z,9.47
2023-04-15T20:29:02.478Z,9.35
2023-04-15T20:31:29.672Z,9.34
2023-04-15T20:36:38.088Z,9.26
2023-04-15T20:39:05.050Z,9.27
2023-04-15T20:41:31.999Z,9.28
2023-04-15T20:43:58.810Z,9.30
2023-04-15T20:46:27.824Z,9.37
2023-04-15T20:48:54.479Z,9.29
2023-04-15T20:51:21.281Z,9.27
2023-04-15T20:53:48.203Z,9.20
2023-04-15T20:56:15.236Z,9.29
2023-04-15T20:58:42.138Z,9.21
2023-04-15T21:01:08.807Z,9.12
2023-04-15T21:03:35.954Z,9.12
2023-04-15T21:06:10.750Z,9.23
2023-04-15T21:08:37.427Z,9.14
2023-04-15T21:11:04.238Z,9.15
2023-04-15T21:13:31.220Z,9.12
2023-04-15T21:16:01.205Z,9.04
2023-04-15T21:18:30.322Z,9.15
2023-04-15T21:21:01.587Z,9.08
2023-04-15T21:23:34.079Z,9.10
2023-04-15T21:26:06.947Z,9.10
2023-04-15T21:28:33.772Z,9.16
2023-04-15T21:31:02.892Z,9.12
2023-04-15T21:33:33.586Z,9.15
2023-04-15T21:36:18.070Z,9.06
2023-04-15T21:39:03.466Z,9.01
2023-04-15T21:41:33.459Z,9.07
2023-04-15T21:44:05.596Z,9.16
2023-04-15T21:46:47.027Z,9.00
2023-04-15T21:49:21.870Z,9.18
2023-04-15T21:51:56.130Z,9.06
2023-04-15T21:54:27.295Z,9.06
2023-04-15T21:57:01.154Z,9.15
2023-04-15T21:59:32.997Z,9.06
2023-04-15T22:02:14.929Z,9.11
2023-04-15T22:04:47.789Z,9.06
2023-04-15T22:07:22.056Z,9.03
2023-04-15T22:09:55.206Z,9.07
2023-04-15T22:12:21.889Z,9.08
2023-04-15T22:14:48.857Z,9.08
2023-04-15T22:17:15.828Z,9.12
2023-04-15T22:19:57.007Z,9.03
2023-04-15T22:22:43.533Z,9.03
2023-04-15T22:25:14.122Z,8.99
2023-04-15T22:27:43.542Z,8.99
2023-04-15T22:30:11.052Z,9.11
2023-04-15T22:32:38.589Z,9.09
2023-04-15T22:35:06.677Z,9.10
2023-04-15T22:37:40.398Z,9.09
2023-04-15T22:40:07.656Z,9.12
2023-04-15T22:42:34.492Z,9.09
2023-04-15T22:45:01.293Z,9.07
2023-04-15T22:47:32.293Z,9.02
2023-04-15T22:49:59.130Z,9.16
2023-04-15T22:52:31.156Z,9.13
2023-04-15T22:54:59.063Z,9.00
2023-04-15T22:57:27.872Z,9.04
2023-04-15T22:59:57.794Z,9.02
2023-04-15T23:02:27.534Z,9.05
2023-04-15T23:05:00.510Z,9.00
2023-04-15T23:07:30.751Z,9.01
2023-04-15T23:09:58.075Z,9.12
2023-04-15T23:12:27.745Z,9.06
2023-04-15T23:15:00.896Z,9.06
2023-04-15T23:17:40.516Z,9.04
2023-04-15T23:20:07.606Z,8.99
2023-04-15T23:22:47.260Z,8.97
2023-04-15T23:25:14.144Z,9.01
2023-04-15T23:27:40.714Z,8.98
2023-04-15T23:30:08.001Z,8.99
2023-04-15T23:32:34.898Z,9.01
2023-04-15T23:35:01.655Z,9.07
2023-04-15T23:37:31.621Z,9.05
2023-04-15T23:39:58.647Z,9.03
2023-04-15T23:42:25.888Z,8.92
2023-04-15T23:44:52.475Z,8.99
2023-04-15T23:47:19.268Z,9.04
2023-04-15T23:49:45.980Z,9.03
2023-04-15T23:52:12.787Z,9.04
2023-04-15T23:54:40.402Z,8.97
2023-04-15T23:57:07.653Z,8.99
2023-04-15T23:59:34.487Z,9.02
